sensor_id;sensor_type;location;lat;lon;timestamp;pressure;altitude;pressure_sealevel;temperature;humidity
8160;BME280;27404;52.398;9.646;2023-04-26T00:02:12;100923.41;;;1.35;100.00
8160;BME280;27404;52.398;9.646;2023-04-26T00:04:38;100922.56;;;1.34;100.00
8160;BME280;27404;52.398;9.646;2023-04-26T00:07:04;100926.09;;;1.26;100.00
8160;BME280;27404;52.398;9.646;2023-04-26T00:09:30;100919.72;;;1.19;100.00
8160;BME280;27404;52.398;9.646;2023-04-26T00:11:55;100925.44;;;1.24;100.00
8160;BME280;27404;52.398;9.646;2023-04-26T00:14:21;100925.94;;;1.28;100.00
8160;BME280;27404;52.398;9.646;2023-04-26T00:16:46;100925.59;;;1.23;100.00
8160;BME280;27404;52.398;9.646;2023-04-26T00:19:12;100915.47;;;1.16;100.00
8160;BME280;27404;52.398;9.646;2023-04-26T00:21:38;100923.06;;;1.21;100.00
8160;BME280;27404;52.398;9.646;2023-04-26T00:24:04;100928.13;;;1.16;100.00
8160;BME280;27404;52.398;9.646;2023-04-26T00:26:30;100920.38;;;1.13;100.00
8160;BME280;27404;52.398;9.646;2023-04-26T00:28:56;100916.81;;;1.12;100.00
8160;BME280;27404;52.398;9.646;2023-04-26T00:31:22;100915.97;;;1.03;100.00
8160;BME280;27404;52.398;9.646;2023-04-26T00:33:47;100920.50;;;0.95;100.00
8160;BME280;27404;52.398;9.646;2023-04-26T00:36:13;100914.94;;;0.96;100.00
8160;BME280;27404;52.398;9.646;2023-04-26T00:38:41;100919.69;;;1.02;100.00
8160;BME280;27404;52.398;9.646;2023-04-26T00:41:06;100912.94;;;0.98;100.00
8160;BME280;27404;52.398;9.646;2023-04-26T00:43:31;100926.91;;;0.94;100.00
8160;BME280;27404;52.398;9.646;2023-04-26T00:45:57;100931.09;;;0.96;100.00
8160;BME280;27404;52.398;9.646;2023-04-26T00:48:23;100930.06;;;0.89;100.00
8160;BME280;27404;52.398;9.646;2023-04-26T00:50:48;100929.72;;;0.84;100.00
8160;BME280;27404;52.398;9.646;2023-04-26T00:53:15;100932.09;;;0.87;100.00
8160;BME280;27404;52.398;9.646;2023-04-26T00:55:42;100926.19;;;0.83;100.00
8160;BME280;27404;52.398;9.646;2023-04-26T00:58:07;100924.53;;;0.91;100.00
8160;BME280;27404;52.398;9.646;2023-04-26T01:00:33;100922.50;;;0.84;100.00
8160;BME280;27404;52.398;9.646;2023-04-26T01:02:58;100929.91;;;0.82;100.00
8160;BME280;27404;52.398;9.646;2023-04-26T01:05:24;100936.31;;;0.90;100.00
8160;BME280;27404;52.398;9.646;2023-04-26T01:07:49;100931.72;;;0.82;100.00
8160;BME280;27404;52.398;9.646;2023-04-26T01:10:16;100935.94;;;0.76;100.00
8160;BME280;27404;52.398;9.646;2023-04-26T01:12:42;100933.72;;;0.71;100.00
8160;BME280;27404;52.398;9.646;2023-04-26T01:15:08;100932.91;;;0.79;100.00
8160;BME280;27404;52.398;9.646;2023-04-26T01:17:34;100935.59;;;0.79;100.00
8160;BME280;27404;52.398;9.646;2023-04-26T01:20:02;100941.66;;;0.81;100.00
8160;BME280;27404;52.398;9.646;2023-04-26T01:22:31;100941.03;;;0.87;100.00
8160;BME280;27404;52.398;9.646;2023-04-26T01:24:57;100935.78;;;0.86;100.00
8160;BME280;27404;52.398;9.646;2023-04-26T01:27:23;100940.00;;;0.88;100.00
8160;BME280;27404;52.398;9.646;2023-04-26T01:29:49;100938.81;;;0.83;100.00
8160;BME280;27404;52.398;9.646;2023-04-26T01:32:15;100944.88;;;0.85;100.00
8160;BME280;27404;52.398;9.646;2023-04-26T01:34:40;100944.19;;;0.83;100.00
8160;BME280;27404;52.398;9.646;2023-04-26T01:37:05;100948.72;;;0.74;100.00
8160;BME280;27404;52.398;9.646;2023-04-26T01:39:32;100946.66;;;0.68;100.00
8160;BME280;27404;52.398;9.646;2023-04-26T01:41:57;100945.50;;;0.70;100.00
8160;BME280;27404;52.398;9.646;2023-04-26T01:44:23;100946.84;;;0.74;100.00
8160;BME280;27404;52.398;9.646;2023-04-26T01:46:48;100942.81;;;0.79;100.00
8160;BME280;27404;52.398;9.646;2023-04-26T01:49:14;100943.31;;;0.74;100.00
8160;BME280;27404;52.398;9.646;2023-04-26T01:51:39;100942.16;;;0.77;100.00
8160;BME280;27404;52.398;9.646;2023-04-26T01:54:05;100949.03;;;0.71;100.00
8160;BME280;27404;52.398;9.646;2023-04-26T01:56:30;100950.22;;;0.77;100.00
8160;BME280;27404;52.398;9.646;2023-04-26T01:58:56;100951.72;;;0.71;100.00
8160;BME280;27404;52.398;9.646;2023-04-26T02:01:23;100942.78;;;0.70;100.00
8160;BME280;27404;52.398;9.646;2023-04-26T02:03:49;100943.81;;;0.69;100.00
8160;BME280;27404;52.398;9.646;2023-04-26T02:06:14;100953.78;;;0.77;100.00
8160;BME280;27404;52.398;9.646;2023-04-26T02:08:40;100947.72;;;0.75;100.00
8160;BME280;27404;52.398;9.646;2023-04-26T02:11:05;100953.56;;;0.70;100.00
8160;BME280;27404;52.398;9.646;2023-04-26T02:13:31;100946.16;;;0.64;100.00
8160;BME280;27404;52.398;9.646;2023-04-26T02:15:56;100940.75;;;0.56;100.00
8160;BME280;27404;52.398;9.646;2023-04-26T02:18:22;100939.09;;;0.63;100.00
8160;BME280;27404;52.398;9.646;2023-04-26T02:20:48;100951.66;;;0.54;100.00
8160;BME280;27404;52.398;9.646;2023-04-26T02:23:13;100942.91;;;0.52;100.00
8160;BME280;27404;52.398;9.646;2023-04-26T02:25:40;100940.84;;;0.46;100.00
8160;BME280;27404;52.398;9.646;2023-04-26T02:28:06;100947.13;;;0.55;100.00
8160;BME280;27404;52.398;9.646;2023-04-26T02:30:32;100945.28;;;0.55;100.00
8160;BME280;27404;52.398;9.646;2023-04-26T02:32:57;100950.97;;;0.52;100.00
8160;BME280;27404;52.398;9.646;2023-04-26T02:35:23;100951.16;;;0.51;100.00
8160;BME280;27404;52.398;9.646;2023-04-26T02:37:49;100951.63;;;0.46;100.00
8160;BME280;27404;52.398;9.646;2023-04-26T02:40:19;100953.81;;;0.42;100.00
8160;BME280;27404;52.398;9.646;2023-04-26T02:42:45;100954.44;;;0.36;100.00
8160;BME280;27404;52.398;9.646;2023-04-26T02:45:11;100950.22;;;0.34;100.00
8160;BME280;27404;52.398;9.646;2023-04-26T02:47:36;100953.25;;;0.31;100.00
8160;BME280;27404;52.398;9.646;2023-04-26T02:50:06;100946.19;;;0.29;100.00
8160;BME280;27404;52.398;9.646;2023-04-26T02:52:32;100953.06;;;0.32;100.00
8160;BME280;27404;52.398;9.646;2023-04-26T02:54:58;100947.34;;;0.27;100.00
8160;BME280;27404;52.398;9.646;2023-04-26T02:57:23;100947.81;;;0.22;100.00
8160;BME280;27404;52.398;9.646;2023-04-26T02:59:49;100953.53;;;0.19;100.00
8160;BME280;27404;52.398;9.646;2023-04-26T03:02:14;100949.16;;;0.18;100.00
8160;BME280;27404;52.398;9.646;2023-04-26T03:04:40;100949.16;;;0.18;100.00
8160;BME280;27404;52.398;9.646;2023-04-26T03:07:06;100949.50;;;0.23;100.00
8160;BME280;27404;52.398;9.646;2023-04-26T03:09:31;100951.97;;;0.17;100.00
8160;BME280;27404;52.398;9.646;2023-04-26T03:11:58;100951.47;;;0.13;100.00
8160;BME280;27404;52.398;9.646;2023-04-26T03:14:24;100945.78;;;0.16;100.00
8160;BME280;27404;52.398;9.646;2023-04-26T03:16:49;100954.19;;;0.21;100.00
8160;BME280;27404;52.398;9.646;2023-04-26T03:19:15;100952.53;;;0.20;100.00
8160;BME280;27404;52.398;9.646;2023-04-26T03:21:40;100946.47;;;0.18;100.00
8160;BME280;27404;52.398;9.646;2023-04-26T03:24:06;100950.09;;;0.09;100.00
8160;BME280;27404;52.398;9.646;2023-04-26T03:26:31;100946.41;;;0.10;100.00
8160;BME280;27404;52.398;9.646;2023-04-26T03:28:57;100945.78;;;0.16;100.00
8160;BME280;27404;52.398;9.646;2023-04-26T03:31:22;100945.59;;;0.18;100.00
8160;BME280;27404;52.398;9.646;2023-04-26T03:33:48;100940.22;;;0.18;100.00
8160;BME280;27404;52.398;9.646;2023-04-26T03:36:14;100944.41;;;0.12;100.00
8160;BME280;27404;52.398;9.646;2023-04-26T03:38:39;100950.09;;;0.09;100.00
8160;BME280;27404;52.398;9.646;2023-04-26T03:41:07;100950.56;;;0.04;100.00
8160;BME280;27404;52.398;9.646;2023-04-26T03:43:32;100959.84;;;0.10;100.00
8160;BME280;27404;52.398;9.646;2023-04-26T03:45:57;100955.47;;;0.09;100.00
8160;BME280;27404;52.398;9.646;2023-04-26T03:48:23;100945.53;;;0.09;100.00
8160;BME280;27404;52.398;9.646;2023-04-26T03:50:49;100953.84;;;0.16;100.00
8160;BME280;27404;52.398;9.646;2023-04-26T03:53:14;100946.22;;;0.11;100.00
8160;BME280;27404;52.398;9.646;2023-04-26T03:55:40;100940.72;;;0.13;100.00
8160;BME280;27404;52.398;9.646;2023-04-26T03:58:06;100937.72;;;0.16;100.00
8160;BME280;27404;52.398;9.646;2023-04-26T04:00:41;100947.28;;;0.19;100.00
8160;BME280;27404;52.398;9.646;2023-04-26T04:03:08;100942.50;;;0.31;100.00
8160;BME280;27404;52.398;9.646;2023-04-26T04:05:34;100943.00;;;0.34;100.00
8160;BME280;27404;52.398;9.646;2023-04-26T04:07:59;100944.56;;;0.45;100.00
8160;BME280;27404;52.398;9.646;2023-04-26T04:10:25;100955.47;;;0.43;100.00
8160;BME280;27404;52.398;9.646;2023-04-26T04:12:51;100954.16;;;0.48;100.00
8160;BME280;27404;52.398;9.646;2023-04-26T04:15:18;100949.16;;;0.53;100.00
8160;BME280;27404;52.398;9.646;2023-04-26T04:17:44;100949.19;;;0.61;100.00
8160;BME280;27404;52.398;9.646;2023-04-26T04:20:10;100954.41;;;0.71;100.00
8160;BME280;27404;52.398;9.646;2023-04-26T04:22:36;100951.94;;;0.86;100.00
8160;BME280;27404;52.398;9.646;2023-04-26T04:25:07;100940.56;;;1.09;100.00
8160;BME280;27404;52.398;9.646;2023-04-26T04:27:35;100951.81;;;1.12;100.00
8160;BME280;27404;52.398;9.646;2023-04-26T04:30:05;100948.81;;;1.24;100.00
8160;BME280;27404;52.398;9.646;2023-04-26T04:32:32;100952.03;;;1.27;100.00
8160;BME280;27404;52.398;9.646;2023-04-26T04:34:58;100959.75;;;1.39;100.00
8160;BME280;27404;52.398;9.646;2023-04-26T04:37:24;100959.09;;;1.53;100.00
8160;BME280;27404;52.398;9.646;2023-04-26T04:39:53;100956.06;;;1.56;100.00
8160;BME280;27404;52.398;9.646;2023-04-26T04:42:19;100962.13;;;1.58;100.00
8160;BME280;27404;52.398;9.646;2023-04-26T04:44:45;100962.66;;;1.62;100.00
8160;BME280;27404;52.398;9.646;2023-04-26T04:47:12;100967.53;;;1.67;100.00
8160;BME280;27404;52.398;9.646;2023-04-26T04:49:38;100971.25;;;1.74;100.00
8160;BME280;27404;52.398;9.646;2023-04-26T04:52:04;100967.88;;;1.88;100.00
8160;BME280;27404;52.398;9.646;2023-04-26T04:54:30;100965.66;;;1.92;100.00
8160;BME280;27404;52.398;9.646;2023-04-26T04:56:56;100961.09;;;2.01;100.00
8160;BME280;27404;52.398;9.646;2023-04-26T04:59:22;100966.00;;;1.97;100.00
8160;BME280;27404;52.398;9.646;2023-04-26T05:01:48;100967.50;;;2.00;100.00
8160;BME280;27404;52.398;9.646;2023-04-26T05:04:13;100974.94;;;1.98;100.00
8160;BME280;27404;52.398;9.646;2023-04-26T05:06:39;100976.28;;;1.85;100.00
8160;BME280;27404;52.398;9.646;2023-04-26T05:09:05;100968.69;;;1.89;100.00
8160;BME280;27404;52.398;9.646;2023-04-26T05:11:31;100968.53;;;1.99;100.00
8160;BME280;27404;52.398;9.646;2023-04-26T05:13:57;100981.47;;;2.03;100.00
8160;BME280;27404;52.398;9.646;2023-04-26T05:16:22;100974.22;;;2.04;100.00
8160;BME280;27404;52.398;9.646;2023-04-26T05:18:48;100978.13;;;2.01;100.00
8160;BME280;27404;52.398;9.646;2023-04-26T05:21:13;100977.59;;;2.06;100.00
8160;BME280;27404;52.398;9.646;2023-04-26T05:23:39;100972.88;;;2.08;100.00
8160;BME280;27404;52.398;9.646;2023-04-26T05:26:05;100983.81;;;2.23;100.00
8160;BME280;27404;52.398;9.646;2023-04-26T05:28:30;100991.91;;;2.23;100.00
8160;BME280;27404;52.398;9.646;2023-04-26T05:30:56;100983.59;;;2.41;100.00
8160;BME280;27404;52.398;9.646;2023-04-26T05:33:21;100983.59;;;2.41;100.00
8160;BME280;27404;52.398;9.646;2023-04-26T05:35:47;100985.41;;;2.49;100.00
8160;BME280;27404;52.398;9.646;2023-04-26T05:38:12;100991.31;;;2.61;100.00
8160;BME280;27404;52.398;9.646;2023-04-26T05:40:38;100987.53;;;2.70;100.00
8160;BME280;27404;52.398;9.646;2023-04-26T05:43:03;100987.00;;;2.83;100.00
8160;BME280;27404;52.398;9.646;2023-04-26T05:45:29;100990.34;;;2.85;100.00
8160;BME280;27404;52.398;9.646;2023-04-26T05:47:54;100982.91;;;2.87;100.00
8160;BME280;27404;52.398;9.646;2023-04-26T05:50:20;100995.63;;;3.10;100.00
8160;BME280;27404;52.398;9.646;2023-04-26T05:52:45;100987.31;;;3.43;100.00
8160;BME280;27404;52.398;9.646;2023-04-26T05:55:10;100987.53;;;5.15;100.00
8160;BME280;27404;52.398;9.646;2023-04-26T05:57:37;100995.63;;;7.76;100.00
8160;BME280;27404;52.398;9.646;2023-04-26T06:00:03;100995.88;;;10.22;96.26
8160;BME280;27404;52.398;9.646;2023-04-26T06:02:29;100997.50;;;11.66;79.65
8160;BME280;27404;52.398;9.646;2023-04-26T06:04:55;101001.56;;;12.53;70.52
8160;BME280;27404;52.398;9.646;2023-04-26T06:07:21;101000.22;;;12.80;64.92
8160;BME280;27404;52.398;9.646;2023-04-26T06:09:46;101009.81;;;13.47;61.98
8160;BME280;27404;52.398;9.646;2023-04-26T06:12:12;101016.84;;;14.40;56.62
8160;BME280;27404;52.398;9.646;2023-04-26T06:14:37;101011.75;;;12.94;61.04
8160;BME280;27404;52.398;9.646;2023-04-26T06:17:03;100999.06;;;12.28;66.16
8160;BME280;27404;52.398;9.646;2023-04-26T06:19:28;101009.72;;;13.30;63.64
8160;BME280;27404;52.398;9.646;2023-04-26T06:21:54;101013.13;;;11.65;64.76
8160;BME280;27404;52.398;9.646;2023-04-26T06:24:22;101007.69;;;9.91;76.04
8160;BME280;27404;52.398;9.646;2023-04-26T06:26:47;101012.34;;;8.61;88.76
8160;BME280;27404;52.398;9.646;2023-04-26T06:29:13;101004.84;;;7.75;97.17
8160;BME280;27404;52.398;9.646;2023-04-26T06:31:38;101006.09;;;8.26;97.68
8160;BME280;27404;52.398;9.646;2023-04-26T06:34:04;101010.72;;;8.06;97.16
8160;BME280;27404;52.398;9.646;2023-04-26T06:36:29;101016.25;;;9.37;94.30
8160;BME280;27404;52.398;9.646;2023-04-26T06:38:55;101017.31;;;11.37;82.00
8160;BME280;27404;52.398;9.646;2023-04-26T06:41:20;101025.59;;;13.28;67.40
8160;BME280;27404;52.398;9.646;2023-04-26T06:43:47;101032.75;;;14.72;62.21
8160;BME280;27404;52.398;9.646;2023-04-26T06:46:12;101033.06;;;15.43;56.25
8160;BME280;27404;52.398;9.646;2023-04-26T06:48:38;101027.53;;;14.02;57.88
8160;BME280;27404;52.398;9.646;2023-04-26T06:51:07;101034.97;;;14.02;59.17
8160;BME280;27404;52.398;9.646;2023-04-26T06:53:34;101029.66;;;12.84;61.63
8160;BME280;27404;52.398;9.646;2023-04-26T06:55:59;101024.97;;;11.90;65.21
8160;BME280;27404;52.398;9.646;2023-04-26T06:58:24;101027.00;;;10.47;69.78
8160;BME280;27404;52.398;9.646;2023-04-26T07:00:50;101021.19;;;9.54;78.64
8160;BME280;27404;52.398;9.646;2023-04-26T07:03:15;101030.06;;;9.42;85.10
8160;BME280;27404;52.398;9.646;2023-04-26T07:05:41;101028.31;;;9.16;86.52
8160;BME280;27404;52.398;9.646;2023-04-26T07:08:06;101034.69;;;8.96;90.78
8160;BME280;27404;52.398;9.646;2023-04-26T07:10:32;101029.66;;;8.93;90.29
8160;BME280;27404;52.398;9.646;2023-04-26T07:12:57;101023.69;;;9.16;89.82
8160;BME280;27404;52.398;9.646;2023-04-26T07:15:23;101034.38;;;8.25;91.37
8160;BME280;27404;52.398;9.646;2023-04-26T07:17:48;101030.38;;;7.74;97.58
8160;BME280;27404;52.398;9.646;2023-04-26T07:20:14;101028.88;;;7.71;100.00
8160;BME280;27404;52.398;9.646;2023-04-26T07:22:44;101032.03;;;7.68;100.00
8160;BME280;27404;52.398;9.646;2023-04-26T07:25:09;101022.84;;;7.96;100.00
8160;BME280;27404;52.398;9.646;2023-04-26T07:27:35;101024.53;;;8.18;100.00
8160;BME280;27404;52.398;9.646;2023-04-26T07:30:00;101023.69;;;8.24;99.15
8160;BME280;27404;52.398;9.646;2023-04-26T07:32:26;101037.28;;;7.97;99.95
8160;BME280;27404;52.398;9.646;2023-04-26T07:34:51;101029.97;;;8.11;99.79
8160;BME280;27404;52.398;9.646;2023-04-26T07:37:17;101027.88;;;8.33;99.33
8160;BME280;27404;52.398;9.646;2023-04-26T07:39:43;101029.75;;;8.26;98.40
8160;BME280;27404;52.398;9.646;2023-04-26T07:42:08;101029.13;;;8.30;97.67
8160;BME280;27404;52.398;9.646;2023-04-26T07:44:34;101022.22;;;8.08;98.67
8160;BME280;27404;52.398;9.646;2023-04-26T07:46:59;101025.78;;;8.15;98.62
8160;BME280;27404;52.398;9.646;2023-04-26T07:49:24;101021.59;;;8.06;100.00
8160;BME280;27404;52.398;9.646;2023-04-26T07:51:50;101025.75;;;8.42;100.00
8160;BME280;27404;52.398;9.646;2023-04-26T07:54:16;101022.66;;;8.18;100.00
8160;BME280;27404;52.398;9.646;2023-04-26T07:56:42;101028.91;;;7.78;100.00
8160;BME280;27404;52.398;9.646;2023-04-26T07:59:07;101037.53;;;7.89;100.00
8160;BME280;27404;52.398;9.646;2023-04-26T08:01:33;101034.78;;;8.02;100.00
8160;BME280;27404;52.398;9.646;2023-04-26T08:03:58;101022.84;;;7.83;100.00
8160;BME280;27404;52.398;9.646;2023-04-26T08:06:24;101024.28;;;7.79;100.00
8160;BME280;27404;52.398;9.646;2023-04-26T08:08:49;101027.03;;;7.79;98.67
8160;BME280;27404;52.398;9.646;2023-04-26T08:11:17;101037.50;;;7.95;98.79
8160;BME280;27404;52.398;9.646;2023-04-26T08:13:42;101025.75;;;7.75;98.77
8160;BME280;27404;52.398;9.646;2023-04-26T08:16:08;101026.41;;;7.90;97.73
8160;BME280;27404;52.398;9.646;2023-04-26T08:18:34;101018.66;;;8.34;96.30
8160;BME280;27404;52.398;9.646;2023-04-26T08:21:00;101028.47;;;8.42;97.69
8160;BME280;27404;52.398;9.646;2023-04-26T08:23:25;101026.00;;;8.54;96.17
8160;BME280;27404;52.398;9.646;2023-04-26T08:25:52;101030.19;;;8.36;90.35
8160;BME280;27404;52.398;9.646;2023-04-26T08:28:17;101019.88;;;8.45;88.62
8160;BME280;27404;52.398;9.646;2023-04-26T08:30:43;101029.94;;;8.38;87.98
8160;BME280;27404;52.398;9.646;2023-04-26T08:33:09;101036.47;;;7.90;90.18
8160;BME280;27404;52.398;9.646;2023-04-26T08:35:34;101029.72;;;7.65;87.75
8160;BME280;27404;52.398;9.646;2023-04-26T08:37:59;101027.78;;;7.39;89.76
8160;BME280;27404;52.398;9.646;2023-04-26T08:40:25;101036.78;;;7.39;90.30
8160;BME280;27404;52.398;9.646;2023-04-26T08:42:50;101037.03;;;7.51;89.19
8160;BME280;27404;52.398;9.646;2023-04-26T08:45:18;101032.66;;;7.70;90.18
8160;BME280;27404;52.398;9.646;2023-04-26T08:47:47;101035.00;;;7.94;90.25
8160;BME280;27404;52.398;9.646;2023-04-26T08:50:15;101037.94;;;8.26;86.93
8160;BME280;27404;52.398;9.646;2023-04-26T08:52:41;101024.94;;;8.28;87.99
8160;BME280;27404;52.398;9.646;2023-04-26T08:55:08;101037.50;;;8.42;85.75
8160;BME280;27404;52.398;9.646;2023-04-26T08:57:34;101039.81;;;8.66;82.97
8160;BME280;27404;52.398;9.646;2023-04-26T09:00:04;101038.94;;;8.72;82.33
8160;BME280;27404;52.398;9.646;2023-04-26T09:02:30;101035.84;;;8.55;81.78
8160;BME280;27404;52.398;9.646;2023-04-26T09:04:56;101031.41;;;8.47;82.82
8160;BME280;27404;52.398;9.646;2023-04-26T09:07:34;101050.06;;;8.77;83.68
8160;BME280;27404;52.398;9.646;2023-04-26T09:10:04;101036.00;;;8.80;83.01
8160;BME280;27404;52.398;9.646;2023-04-26T09:12:30;101037.53;;;8.56;83.07
8160;BME280;27404;52.398;9.646;2023-04-26T09:14:56;101037.31;;;8.51;80.58
8160;BME280;27404;52.398;9.646;2023-04-26T09:19:55;101044.72;;;8.96;76.29
8160;BME280;27404;52.398;9.646;2023-04-26T09:22:31;101039.50;;;8.94;78.37
8160;BME280;27404;52.398;9.646;2023-04-26T09:24:57;101030.31;;;8.88;74.20
8160;BME280;27404;52.398;9.646;2023-04-26T09:27:43;101036.34;;;8.97;74.06
8160;BME280;27404;52.398;9.646;2023-04-26T09:30:16;101034.94;;;9.33;73.47
8160;BME280;27404;52.398;9.646;2023-04-26T09:35:35;101033.78;;;9.55;74.76
8160;BME280;27404;52.398;9.646;2023-04-26T09:38:11;101045.03;;;9.33;77.36
8160;BME280;27404;52.398;9.646;2023-04-26T09:40:47;101042.41;;;9.06;72.33
8160;BME280;27404;52.398;9.646;2023-04-26T09:43:13;101039.22;;;9.16;74.06
8160;BME280;27404;52.398;9.646;2023-04-26T09:45:53;101045.16;;;9.52;72.97
8160;BME280;27404;52.398;9.646;2023-04-26T09:48:23;101042.03;;;10.05;73.69
8160;BME280;27404;52.398;9.646;2023-04-26T09:50:55;101036.78;;;10.29;71.98
8160;BME280;27404;52.398;9.646;2023-04-26T09:53:35;101041.88;;;10.51;70.60
8160;BME280;27404;52.398;9.646;2023-04-26T09:56:11;101050.72;;;10.72;69.12
8160;BME280;27404;52.398;9.646;2023-04-26T10:01:16;101050.50;;;10.22;67.53
8160;BME280;27404;52.398;9.646;2023-04-26T10:03:42;101049.81;;;9.76;69.35
8160;BME280;27404;52.398;9.646;2023-04-26T10:06:07;101056.25;;;9.89;69.95
8160;BME280;27404;52.398;9.646;2023-04-26T10:08:34;101056.44;;;10.19;70.75
8160;BME280;27404;52.398;9.646;2023-04-26T10:11:03;101044.53;;;10.32;70.57
8160;BME280;27404;52.398;9.646;2023-04-26T10:13:31;101050.78;;;10.65;67.96
8160;BME280;27404;52.398;9.646;2023-04-26T10:15:59;101049.66;;;10.73;66.93
8160;BME280;27404;52.398;9.646;2023-04-26T10:18:25;101041.75;;;11.02;64.40
8160;BME280;27404;52.398;9.646;2023-04-26T10:20:52;101053.75;;;10.63;64.80
8160;BME280;27404;52.398;9.646;2023-04-26T10:23:21;101044.03;;;10.68;64.47
8160;BME280;27404;52.398;9.646;2023-04-26T10:25:50;101053.91;;;10.69;64.92
8160;BME280;27404;52.398;9.646;2023-04-26T10:28:52;101035.88;;;10.35;65.81
8160;BME280;27404;52.398;9.646;2023-04-26T10:31:01;101043.44;;;10.65;68.93
8160;BME280;27404;52.398;9.646;2023-04-26T10:33:27;101039.59;;;10.48;68.80
8160;BME280;27404;52.398;9.646;2023-04-26T10:38:25;101039.78;;;9.96;67.70
8160;BME280;27404;52.398;9.646;2023-04-26T10:40:51;101043.81;;;9.61;64.42
8160;BME280;27404;52.398;9.646;2023-04-26T10:45:45;101036.47;;;9.61;63.47
8160;BME280;27404;52.398;9.646;2023-04-26T10:48:18;101039.50;;;9.78;65.13
8160;BME280;27404;52.398;9.646;2023-04-26T10:56:08;101029.69;;;10.54;60.40
8160;BME280;27404;52.398;9.646;2023-04-26T10:58:34;101037.75;;;10.42;58.52
8160;BME280;27404;52.398;9.646;2023-04-26T11:01:07;101040.03;;;10.19;61.00
8160;BME280;27404;52.398;9.646;2023-04-26T11:03:39;101038.47;;;10.30;61.75
8160;BME280;27404;52.398;9.646;2023-04-26T11:06:10;101035.44;;;10.64;60.06
8160;BME280;27404;52.398;9.646;2023-04-26T11:08:40;101041.31;;;10.86;61.47
8160;BME280;27404;52.398;9.646;2023-04-26T11:11:09;101032.69;;;10.64;60.00
8160;BME280;27404;52.398;9.646;2023-04-26T11:13:36;101034.47;;;10.95;61.95
8160;BME280;27404;52.398;9.646;2023-04-26T11:16:07;101027.09;;;10.96;60.81
8160;BME280;27404;52.398;9.646;2023-04-26T11:18:34;101028.16;;;10.95;63.67
8160;BME280;27404;52.398;9.646;2023-04-26T11:21:01;101029.81;;;10.77;61.75
8160;BME280;27404;52.398;9.646;2023-04-26T11:23:28;101030.50;;;10.54;61.40
8160;BME280;27404;52.398;9.646;2023-04-26T11:26:05;101019.59;;;10.73;62.00
8160;BME280;27404;52.398;9.646;2023-04-26T11:28:33;101018.34;;;10.50;61.29
8160;BME280;27404;52.398;9.646;2023-04-26T11:30:59;101024.66;;;10.25;63.29
8160;BME280;27404;52.398;9.646;2023-04-26T11:33:26;101017.91;;;10.02;63.04
8160;BME280;27404;52.398;9.646;2023-04-26T11:35:53;101015.16;;;10.28;62.73
8160;BME280;27404;52.398;9.646;2023-04-26T11:38:23;101015.28;;;10.40;61.11
8160;BME280;27404;52.398;9.646;2023-04-26T11:40:59;101016.06;;;10.47;59.53
8160;BME280;27404;52.398;9.646;2023-04-26T11:43:44;101002.13;;;10.30;56.92
8160;BME280;27404;52.398;9.646;2023-04-26T11:46:09;101011.97;;;10.56;57.36
8160;BME280;27404;52.398;9.646;2023-04-26T11:48:36;101026.25;;;10.58;56.88
8160;BME280;27404;52.398;9.646;2023-04-26T11:51:03;101022.44;;;10.96;57.43
8160;BME280;27404;52.398;9.646;2023-04-26T11:53:40;101028.69;;;10.66;55.62
8160;BME280;27404;52.398;9.646;2023-04-26T11:56:13;101031.44;;;10.85;58.65
8160;BME280;27404;52.398;9.646;2023-04-26T11:58:49;101018.28;;;11.13;60.58
8160;BME280;27404;52.398;9.646;2023-04-26T12:01:25;101026.59;;;10.87;60.18
8160;BME280;27404;52.398;9.646;2023-04-26T12:03:52;101021.56;;;10.84;60.56
8160;BME280;27404;52.398;9.646;2023-04-26T12:06:18;101030.88;;;10.76;58.25
8160;BME280;27404;52.398;9.646;2023-04-26T12:08:50;101025.63;;;10.93;59.24
8160;BME280;27404;52.398;9.646;2023-04-26T12:11:16;101025.94;;;11.53;58.99
8160;BME280;27404;52.398;9.646;2023-04-26T12:13:42;101025.66;;;11.43;57.48
8160;BME280;27404;52.398;9.646;2023-04-26T12:16:08;101030.16;;;11.37;54.56
8160;BME280;27404;52.398;9.646;2023-04-26T12:18:33;101024.22;;;11.09;56.50
8160;BME280;27404;52.398;9.646;2023-04-26T12:20:59;101024.22;;;10.91;58.28
8160;BME280;27404;52.398;9.646;2023-04-26T12:23:35;101032.19;;;10.74;58.63
8160;BME280;27404;52.398;9.646;2023-04-26T12:26:03;101035.50;;;10.57;58.55
8160;BME280;27404;52.398;9.646;2023-04-26T12:28:28;101029.44;;;10.55;59.10
8160;BME280;27404;52.398;9.646;2023-04-26T12:30:54;101026.88;;;10.35;61.39
8160;BME280;27404;52.398;9.646;2023-04-26T12:33:20;101036.47;;;10.19;61.49
8160;BME280;27404;52.398;9.646;2023-04-26T12:35:48;101026.72;;;10.30;60.85
8160;BME280;27404;52.398;9.646;2023-04-26T12:38:14;101032.28;;;10.42;58.81
8160;BME280;27404;52.398;9.646;2023-04-26T12:40:40;101022.47;;;10.34;58.83
8160;BME280;27404;52.398;9.646;2023-04-26T12:43:06;101028.50;;;10.17;58.93
8160;BME280;27404;52.398;9.646;2023-04-26T12:45:31;101035.19;;;10.21;59.30
8160;BME280;27404;52.398;9.646;2023-04-26T12:47:57;101039.81;;;10.21;58.02
8160;BME280;27404;52.398;9.646;2023-04-26T12:50:22;101040.28;;;10.36;59.48
8160;BME280;27404;52.398;9.646;2023-04-26T12:52:48;101026.53;;;10.50;58.65
8160;BME280;27404;52.398;9.646;2023-04-26T12:55:14;101040.16;;;10.57;59.74
8160;BME280;27404;52.398;9.646;2023-04-26T12:57:42;101039.31;;;10.56;61.71
8160;BME280;27404;52.398;9.646;2023-04-26T13:00:15;101037.19;;;10.58;61.83
8160;BME280;27404;52.398;9.646;2023-04-26T13:02:42;101040.00;;;10.51;60.09
8160;BME280;27404;52.398;9.646;2023-04-26T13:05:08;101033.59;;;10.39;61.71
8160;BME280;27404;52.398;9.646;2023-04-26T13:07:37;101036.75;;;10.36;59.83
8160;BME280;27404;52.398;9.646;2023-04-26T13:10:04;101038.88;;;10.34;60.84
8160;BME280;27404;52.398;9.646;2023-04-26T13:12:29;101043.09;;;10.04;57.78
8160;BME280;27404;52.398;9.646;2023-04-26T13:14:55;101040.38;;;9.72;59.12
8160;BME280;27404;52.398;9.646;2023-04-26T13:17:23;101038.50;;;9.34;59.62
8160;BME280;27404;52.398;9.646;2023-04-26T13:19:49;101037.75;;;9.20;60.82